Syracuse Hancock International Airport
KSYR : now visible

Airfield :











YOU CAN JOIN US ON...

 
LOGIN :

Register | Disclaimer

   EN    FR    IT 

 









Legend :    VFR   Marginal VFR   IFR   Intensive IFR   Very Intensive IFR
Visi :
Ceiling :
>= 8 km
>= 3000ft
5 to 8 km
1000 to 3000 ft
1500m to 5 km
500 to 1000 ft
800 to 1500m
200 to 500 ft
< 800m
< 200 ft
Symbols :   Thunderstorms  Fog  Heavy snow  Heavy precipitations  Wind > 20 kt






- Airport Elevation : 421 ft
- IATA code : SYR


KSYR - Syracuse Hancock International

CURRENT METAR :
  • 221154Z 08003KT 10SM BKN026 OVC032 12/10 A3026 RMK AO2 SLP244 70002 T01170100 10122 20106 50001

EXPIRED METARs :
  • 221054Z 07003KT 10SM OVC026 12/09 A3026 RMK AO2 SLP244 T01170094
  • 220954Z 10003KT 10SM OVC028 11/09 A3026 RMK AO2 SLP244 OVC V BKN T01060089
  • 220934Z 00000KT 10SM BKN029 BKN036 11/09 A3026 RMK AO2 T01060089

TAF KSYR
Valid from the 22 at 12:00 until the 23 at 12:00 UTC


221132Z 2212/2312 VRB03KT P6SM BKN030
TEMPO 2213/2216 5SM -SHRA OVC020
FM230000 VRB04KT P6SM BKN050
FM230400 12005KT P6SM SCT050
KZBW FIR / North America



MET'MAP, your aeronautical weather chart ! - Copyright ORBIFLY December 2007 - Disclaimer

ORBIFLY MET'MAP TEAM :

Programming & Development : Alexandra Zaïnal
Concept & original design : Baudouin d'Aumeries
Assistance for programming : Marc-Olivier Méhu
Technical & hardware support : Manuel Goepfert

Contact : metmap@orbifly.com




SOURCES & CREDITS :

   NOAA       Earth
Advisory